Search for airport 
image banner adimage banner adimage banner ad
image banner ad

PA54 - Kellachows

Located in Carbondale, United States

ICAO - PA54, IATA -

Data provided by Airmate  

General information

Coordinates: N41°31'20" W75°23'46"
Elevation is 1430 feet MSL.
Magnetic variation is -12° East
View others Airports in Pennsylvania

Operational data

Special qualification required
Current time UTC:
Current local time:
Weather at : KAVP - Wilkes-Barre/Scranton Intl ( 34 km )
METAR: KAVP 071154Z 04006KT 10SM CLR 08/M01 A2993 RMK AO2 SLP134 T00831006 10083 20033 57006
TAF: KAVP 071120Z 0712/0812 12004KT P6SM SCT150 FM071700 20005KT P6SM OVC050 FM080000 VRB03KT P6SM -SHRA OVC030 FM080300 14004KT 5SM -SHRA BR OVC012
View NOTAMs / SUP AIP / TFR affecting this airport [VIEW]
Communications frequencies: [VIEW]

Runways:

RWY identifierQFULength (ft)Width (ft)SurfaceLDA (ft)
012555100GRASS
192555100GRASS

Airport contact information

Address: Carbondale United States

Satellite view of PA54